createdAt,value
2023-04-01T00:01:04.603Z,99644.84
2023-04-01T00:03:33.120Z,99639.09
2023-04-01T00:06:02.607Z,99641.97
2023-04-01T00:08:31.008Z,99646.06
2023-04-01T00:10:59.135Z,99649.56
2023-04-01T00:13:27.564Z,99645.25
2023-04-01T00:15:57.586Z,99647.63
2023-04-01T00:18:26.299Z,99650.00
2023-04-01T00:20:54.682Z,99645.59
2023-04-01T00:23:22.977Z,99652.13
2023-04-01T00:25:51.114Z,99652.81
2023-04-01T00:28:20.809Z,99661.72
2023-04-01T00:30:49.047Z,99650.53
2023-04-01T00:33:17.874Z,99668.47
2023-04-01T00:35:46.010Z,99647.34
2023-04-01T00:38:14.830Z,99658.13
2023-04-01T00:40:44.601Z,99655.88
2023-04-01T00:43:21.801Z,99655.50
2023-04-01T00:45:50.739Z,99658.59
2023-04-01T00:48:26.708Z,99663.28
2023-04-01T00:51:07.913Z,99664.06
2023-04-01T00:53:41.437Z,99671.63
2023-04-01T00:56:16.014Z,99672.69
2023-04-01T00:58:49.943Z,99670.16
2023-04-01T01:01:18.221Z,99675.56
2023-04-01T01:03:46.181Z,99668.81
2023-04-01T01:06:35.812Z,99673.31
2023-04-01T01:09:12.677Z,99672.78
2023-04-01T01:12:12.241Z,99672.00
2023-04-01T01:15:17.755Z,99660.09
2023-04-01T01:17:59.742Z,99664.84
2023-04-01T01:20:30.922Z,99673.13
2023-04-01T01:23:14.101Z,99676.13
2023-04-01T01:26:14.918Z,99668.50
2023-04-01T01:28:48.145Z,99658.78
2023-04-01T01:31:24.566Z,99668.22
2023-04-01T01:33:55.612Z,99660.97
2023-04-01T01:36:28.199Z,99657.34
2023-04-01T01:38:58.204Z,99664.03
2023-04-01T01:41:28.883Z,99657.00
2023-04-01T01:43:59.995Z,99658.28
2023-04-01T01:46:30.088Z,99653.91
2023-04-01T01:49:00.617Z,99664.31
2023-04-01T01:51:29.279Z,99662.88
2023-04-01T01:53:57.359Z,99655.16
2023-04-01T01:56:29.862Z,99652.41
2023-04-01T01:59:03.219Z,99644.88
2023-04-01T02:01:32.900Z,99640.28
2023-04-01T02:04:11.381Z,99651.06
2023-04-01T02:06:43.510Z,99653.44
2023-04-01T02:09:12.899Z,99652.41
2023-04-01T02:11:49.863Z,99647.31
2023-04-01T02:14:27.312Z,99644.81
2023-04-01T02:16:59.587Z,99650.63
2023-04-01T02:19:44.774Z,99656.66
2023-04-01T02:22:17.998Z,99659.16
2023-04-01T02:24:46.766Z,99659.91
2023-04-01T02:27:14.795Z,99647.88
2023-04-01T02:29:43.006Z,99659.91
2023-04-01T02:32:11.488Z,99649.56
2023-04-01T02:34:39.979Z,99651.13
2023-04-01T02:37:08.021Z,99643.88
2023-04-01T02:39:35.934Z,99637.28
2023-04-01T02:42:03.990Z,99639.06
2023-04-01T02:44:33.176Z,99644.66
2023-04-01T02:47:01.297Z,99642.31
2023-04-01T02:49:29.188Z,99650.22
2023-04-01T02:51:57.068Z,99653.50
2023-04-01T02:54:24.953Z,99663.44
2023-04-01T02:56:52.989Z,99664.97
2023-04-01T02:59:21.710Z,99667.09
2023-04-01T03:01:49.584Z,99665.44
2023-04-01T03:04:17.518Z,99662.22
2023-04-01T03:06:45.661Z,99674.13
2023-04-01T03:09:13.608Z,99676.91
2023-04-01T03:11:42.112Z,99677.31
2023-04-01T03:14:09.972Z,99669.06
2023-04-01T03:16:37.964Z,99658.88
2023-04-01T03:19:05.874Z,99663.06
2023-04-01T03:21:34.021Z,99676.19
2023-04-01T03:24:03.143Z,99681.09
2023-04-01T03:26:31.388Z,99680.25
2023-04-01T03:28:59.732Z,99678.75
2023-04-01T03:31:27.818Z,99670.75
2023-04-01T03:33:58.318Z,99670.31
2023-04-01T03:36:26.663Z,99661.94
2023-04-01T03:38:54.710Z,99672.28
2023-04-01T03:41:33.836Z,99683.44
2023-04-01T03:44:01.783Z,99688.22
2023-04-01T03:46:29.894Z,99691.97
2023-04-01T03:48:58.077Z,99684.41
2023-04-01T03:51:26.101Z,99691.97
2023-04-01T03:53:54.211Z,99698.28
2023-04-01T03:56:22.328Z,99704.38
2023-04-01T03:58:51.585Z,99700.75
2023-04-01T04:01:24.510Z,99706.91
2023-04-01T04:03:57.433Z,99707.16
2023-04-01T04:06:25.652Z,99699.34
2023-04-01T04:08:54.259Z,99706.88
2023-04-01T04:11:23.512Z,99701.13
2023-04-01T04:13:54.414Z,99706.00
2023-04-01T04:16:23.703Z,99703.78
2023-04-01T04:18:58.199Z,99711.59
2023-04-01T04:21:26.131Z,99708.03
2023-04-01T04:23:54.091Z,99706.47
2023-04-01T04:26:22.829Z,99701.56
2023-04-01T04:29:02.306Z,99703.78
2023-04-01T04:31:30.328Z,99718.31
2023-04-01T04:34:02.349Z,99719.41
2023-04-01T04:36:33.963Z,99712.81
2023-04-01T04:39:04.518Z,99720.78
2023-04-01T04:41:37.135Z,99711.84
2023-04-01T04:44:06.701Z,99714.91
2023-04-01T04:46:34.984Z,99706.25
2023-04-01T04:49:13.084Z,99715.69
2023-04-01T04:51:41.321Z,99728.22
2023-04-01T04:54:10.081Z,99726.75
2023-04-01T04:56:55.639Z,99723.28
2023-04-01T04:59:25.529Z,99728.75
2023-04-01T05:02:19.954Z,99728.34
2023-04-01T05:04:48.871Z,99739.19
2023-04-01T05:07:17.036Z,99744.78
2023-04-01T05:09:46.986Z,99742.81
2023-04-01T05:12:16.152Z,99738.09
2023-04-01T05:15:02.145Z,99728.03
2023-04-01T05:17:30.912Z,99722.63
2023-04-01T05:19:59.532Z,99731.13
2023-04-01T05:22:29.422Z,99723.91
2023-04-01T05:24:57.523Z,99729.19
2023-04-01T05:27:25.830Z,99727.50
2023-04-01T05:29:54.023Z,99730.41
2023-04-01T05:32:48.561Z,99727.88
2023-04-01T05:35:16.871Z,99735.88
2023-04-01T05:37:45.073Z,99748.97
2023-04-01T05:40:13.585Z,99741.19
2023-04-01T05:42:41.808Z,99750.28
2023-04-01T05:45:10.877Z,99748.06
2023-04-01T05:48:00.851Z,99746.25
2023-04-01T05:50:32.866Z,99744.59
2023-04-01T05:53:01.608Z,99746.41
2023-04-01T05:55:29.967Z,99757.91
2023-04-01T05:57:58.190Z,99759.69
2023-04-01T06:00:26.416Z,99751.97
2023-04-01T06:02:54.931Z,99745.97
2023-04-01T06:05:26.487Z,99744.94
2023-04-01T06:08:00.676Z,99750.94
2023-04-01T06:10:43.524Z,99761.97
2023-04-01T06:13:32.334Z,99762.69
2023-04-01T06:16:19.249Z,99758.06
2023-04-01T06:19:06.132Z,99748.56
2023-04-01T06:22:12.236Z,99741.69
2023-04-01T06:25:10.075Z,99749.81
2023-04-01T06:27:57.354Z,99743.50
2023-04-01T06:30:46.260Z,99758.03
2023-04-01T06:33:30.014Z,99760.41
2023-04-01T06:36:19.097Z,99767.78
2023-04-01T06:39:15.695Z,99777.53
2023-04-01T06:42:04.794Z,99781.66
2023-04-01T06:44:44.620Z,99775.53
2023-04-01T06:47:40.757Z,99779.75
2023-04-01T06:50:35.047Z,99778.22
2023-04-01T06:53:43.198Z,99773.50
2023-04-01T06:56:47.833Z,99770.47
2023-04-01T06:59:36.709Z,99774.53
2023-04-01T07:02:11.337Z,99782.75
2023-04-01T07:04:46.197Z,99787.31
2023-04-01T07:07:47.756Z,99791.19
2023-04-01T07:10:24.748Z,99792.78
2023-04-01T07:13:32.927Z,99790.13
2023-04-01T07:16:10.336Z,99793.19
2023-04-01T07:18:53.341Z,99796.59
2023-04-01T07:21:32.026Z,99797.16
2023-04-01T07:24:27.283Z,99791.53
2023-04-01T07:27:11.899Z,99792.31
2023-04-01T07:29:41.605Z,99794.94
2023-04-01T07:32:24.491Z,99796.28
2023-04-01T07:35:16.937Z,99793.22
2023-04-01T07:38:16.896Z,99792.94
2023-04-01T07:41:28.463Z,99799.59
2023-04-01T07:44:10.934Z,99805.47
2023-04-01T07:46:42.402Z,99802.97
2023-04-01T07:49:49.457Z,99798.19
2023-04-01T07:52:56.706Z,99811.09
2023-04-01T07:55:39.384Z,99802.22
2023-04-01T07:58:18.894Z,99800.81
2023-04-01T08:01:13.324Z,99799.34
2023-04-01T08:04:03.214Z,99806.50
2023-04-01T08:06:44.699Z,99805.47
2023-04-01T08:09:20.047Z,99794.56
2023-04-01T08:12:12.749Z,99799.31
2023-04-01T08:15:23.302Z,99791.56
2023-04-01T08:18:36.486Z,99795.75
2023-04-01T08:21:13.792Z,99803.56
2023-04-01T08:23:48.287Z,99807.09
2023-04-01T08:26:30.952Z,99795.25
2023-04-01T08:29:07.459Z,99796.41
2023-04-01T08:32:03.923Z,99801.88
2023-04-01T08:34:39.234Z,99792.22
2023-04-01T08:37:18.943Z,99789.81
2023-04-01T08:39:55.998Z,99792.72
2023-04-01T08:42:54.556Z,99791.41
2023-04-01T08:45:54.293Z,99797.25
2023-04-01T08:48:45.212Z,99798.22
2023-04-01T08:51:43.656Z,99800.72
2023-04-01T08:54:31.299Z,99801.97
2023-04-01T08:57:11.828Z,99804.69
2023-04-01T08:59:54.499Z,99799.81
2023-04-01T09:03:02.049Z,99802.84
2023-04-01T09:05:48.581Z,99814.09
2023-04-01T09:08:32.387Z,99807.75
2023-04-01T09:11:14.522Z,99815.81
2023-04-01T09:14:25.608Z,99820.03
2023-04-01T09:17:21.708Z,99821.59
2023-04-01T09:20:18.842Z,99820.56
2023-04-01T09:23:16.484Z,99810.09
2023-04-01T09:26:11.690Z,99812.41
2023-04-01T09:28:55.100Z,99813.06
2023-04-01T09:31:49.448Z,99806.94
2023-04-01T09:34:54.368Z,99804.19
2023-04-01T09:37:37.696Z,99799.31
2023-04-01T09:40:52.616Z,99801.63
2023-04-01T09:44:16.127Z,99796.78
2023-04-01T09:47:22.031Z,99794.34
2023-04-01T09:50:08.294Z,99803.66
2023-04-01T09:53:17.479Z,99797.69
2023-04-01T09:56:11.357Z,99807.22
2023-04-01T09:58:51.638Z,99801.50
2023-04-01T10:02:10.203Z,99789.25
2023-04-01T10:05:11.274Z,99791.22
2023-04-01T10:08:25.653Z,99790.47
2023-04-01T10:11:22.859Z,99783.63
2023-04-01T10:13:54.815Z,99781.09
2023-04-01T10:16:44.932Z,99783.22
2023-04-01T10:19:47.553Z,99786.56
2023-04-01T10:22:18.541Z,99779.88
2023-04-01T10:24:47.894Z,99778.53
2023-04-01T10:27:38.085Z,99770.41
2023-04-01T10:30:39.563Z,99772.56
2023-04-01T10:33:46.553Z,99780.91
2023-04-01T10:36:48.199Z,99768.69
2023-04-01T10:39:55.338Z,99772.16
2023-04-01T10:43:22.353Z,99772.50
2023-04-01T10:46:18.699Z,99757.25
2023-04-01T10:49:19.140Z,99757.28
2023-04-01T10:51:59.135Z,99767.25
2023-04-01T10:55:44.250Z,99752.63
2023-04-01T10:58:48.819Z,99751.81
2023-04-01T11:02:09.995Z,99753.19
2023-04-01T11:05:03.024Z,99748.00
2023-04-01T11:08:11.524Z,99740.38
2023-04-01T11:11:14.745Z,99736.53
2023-04-01T11:13:44.049Z,99740.72
2023-04-01T11:16:33.633Z,99741.59
2023-04-01T11:19:24.390Z,99742.88
2023-04-01T11:22:16.159Z,99749.28
2023-04-01T11:25:26.671Z,99739.91
2023-04-01T11:28:25.140Z,99735.44
2023-04-01T11:31:18.835Z,99732.69
2023-04-01T11:33:55.621Z,99734.56
2023-04-01T11:36:46.145Z,99738.97
2023-04-01T11:39:48.901Z,99740.94
2023-04-01T11:42:51.080Z,99750.31
2023-04-01T11:45:51.358Z,99738.44
2023-04-01T11:48:34.876Z,99729.44
2023-04-01T11:51:28.267Z,99737.44
2023-04-01T11:54:14.626Z,99734.91
2023-04-01T11:56:45.855Z,99731.44
2023-04-01T11:59:28.723Z,99723.19
2023-04-01T12:01:56.633Z,99720.38
2023-04-01T12:04:30.718Z,99714.44
2023-04-01T12:07:04.843Z,99719.88
2023-04-01T12:09:56.443Z,99722.28
2023-04-01T12:12:40.125Z,99718.38
2023-04-01T12:15:29.619Z,99711.28
2023-04-01T12:18:20.641Z,99710.34
2023-04-01T12:21:26.292Z,99710.19
2023-04-01T12:24:13.100Z,99715.19
2023-04-01T12:27:00.947Z,99714.13
2023-04-01T12:29:59.947Z,99702.25
2023-04-01T12:33:06.400Z,99698.88
2023-04-01T12:35:53.097Z,99702.75
2023-04-01T12:38:39.913Z,99698.16
2023-04-01T12:41:47.112Z,99690.91
2023-04-01T12:44:36.782Z,99684.31
2023-04-01T12:47:26.414Z,99677.59
2023-04-01T12:50:25.558Z,99685.44
2023-04-01T12:53:04.484Z,99675.88
2023-04-01T12:55:50.555Z,99671.59
2023-04-01T12:59:01.538Z,99682.22
2023-04-01T13:01:47.824Z,99677.34
2023-04-01T13:04:22.301Z,99677.84
2023-04-01T13:06:50.639Z,99671.09
2023-04-01T13:09:40.136Z,99681.38
2023-04-01T13:12:39.027Z,99666.13
2023-04-01T13:15:44.066Z,99663.41
2023-04-01T13:18:30.707Z,99657.84
2023-04-01T13:21:16.933Z,99656.28
2023-04-01T13:24:12.774Z,99646.50
2023-04-01T13:27:14.208Z,99648.09
2023-04-01T13:30:02.827Z,99646.13
2023-04-01T13:32:45.891Z,99635.50
2023-04-01T13:35:23.469Z,99634.69
2023-04-01T13:38:07.007Z,99635.31
2023-04-01T13:41:02.234Z,99624.47
2023-04-01T13:43:41.239Z,99624.41
2023-04-01T13:46:43.816Z,99606.69
2023-04-01T13:49:48.963Z,99608.25
2023-04-01T13:52:32.947Z,99602.34
2023-04-01T13:55:21.404Z,99595.66
2023-04-01T13:58:14.099Z,99593.06
2023-04-01T14:00:48.261Z,99590.88
2023-04-01T14:03:50.327Z,99584.94
2023-04-01T14:06:51.104Z,99590.44
2023-04-01T14:09:30.941Z,99582.56
2023-04-01T14:12:20.896Z,99577.66
2023-04-01T14:15:22.688Z,99583.44
2023-04-01T14:18:03.974Z,99573.47
2023-04-01T14:20:41.756Z,99576.75
2023-04-01T14:23:37.875Z,99573.97
2023-04-01T14:26:05.904Z,99574.44
2023-04-01T14:28:33.945Z,99568.84
2023-04-01T14:31:41.112Z,99575.03
2023-04-01T14:34:18.195Z,99569.69
2023-04-01T14:37:18.342Z,99560.81
2023-04-01T14:40:28.697Z,99558.69
2023-04-01T14:43:38.825Z,99557.56
2023-04-01T14:46:33.830Z,99555.03
2023-04-01T14:49:32.229Z,99548.81
2023-04-01T14:52:26.297Z,99544.44
2023-04-01T14:54:54.917Z,99543.69
2023-04-01T14:57:30.044Z,99548.75
2023-04-01T15:00:05.396Z,99557.75
2023-04-01T15:02:50.248Z,99551.50
2023-04-01T15:05:51.847Z,99554.38
2023-04-01T15:08:44.337Z,99552.34
2023-04-01T15:11:27.556Z,99541.72
2023-04-01T15:14:14.487Z,99538.28
2023-04-01T15:17:34.881Z,99525.81
2023-04-01T15:20:36.910Z,99532.13
2023-04-01T15:23:31.969Z,99531.84
2023-04-01T15:26:21.822Z,99536.28
2023-04-01T15:28:55.281Z,99537.63
2023-04-01T15:31:54.153Z,99537.34
2023-04-01T15:34:51.292Z,99537.91
2023-04-01T15:37:41.348Z,99539.66
2023-04-01T15:40:47.283Z,99541.44
2023-04-01T15:43:43.586Z,99534.59
2023-04-01T15:46:52.883Z,99538.34
2023-04-01T15:49:35.722Z,99542.81
2023-04-01T15:52:23.142Z,99540.03
2023-04-01T15:55:19.491Z,99542.97
2023-04-01T15:58:17.359Z,99544.66
2023-04-01T16:00:59.641Z,99548.44
2023-04-01T16:04:01.836Z,99550.78
2023-04-01T16:06:51.635Z,99549.06
2023-04-01T16:09:32.327Z,99551.50
2023-04-01T16:12:31.263Z,99551.66
2023-04-01T16:15:26.922Z,99541.31
2023-04-01T16:18:11.031Z,99537.28
2023-04-01T16:20:55.079Z,99526.59
2023-04-01T16:23:41.580Z,99527.91
2023-04-01T16:26:19.350Z,99528.13
2023-04-01T16:29:20.379Z,99527.19
2023-04-01T16:32:06.337Z,99525.88
2023-04-01T16:35:03.360Z,99526.56
2023-04-01T16:37:43.113Z,99527.03
2023-04-01T16:40:35.810Z,99531.59
2023-04-01T16:43:37.703Z,99525.84
2023-04-01T16:46:33.348Z,99528.94
2023-04-01T16:49:13.899Z,99527.31
2023-04-01T16:51:48.321Z,99526.81
2023-04-01T16:54:22.557Z,99531.44
2023-04-01T16:57:05.756Z,99532.84
2023-04-01T16:59:39.564Z,99529.06
2023-04-01T17:02:07.437Z,99539.56
2023-04-01T17:04:53.532Z,99535.47
2023-04-01T17:07:27.870Z,99535.63
2023-04-01T17:10:07.884Z,99533.94
2023-04-01T17:12:51.171Z,99538.78
2023-04-01T17:15:28.077Z,99537.81
2023-04-01T17:18:26.495Z,99539.38
2023-04-01T17:21:03.479Z,99539.53
2023-04-01T17:23:45.109Z,99546.91
2023-04-01T17:26:39.775Z,99536.28
2023-04-01T17:29:26.479Z,99539.19
2023-04-01T17:32:40.764Z,99544.59
2023-04-01T17:35:20.201Z,99550.16
2023-04-01T17:38:06.715Z,99552.56
2023-04-01T17:40:59.156Z,99551.47
2023-04-01T17:43:52.044Z,99550.38
2023-04-01T17:46:38.724Z,99552.97
2023-04-01T17:49:42.759Z,99555.91
2023-04-01T17:52:13.668Z,99556.38
2023-04-01T17:54:57.244Z,99558.91
2023-04-01T17:57:46.366Z,99574.63
2023-04-01T18:00:14.267Z,99571.31
2023-04-01T18:03:32.677Z,99578.56
2023-04-01T18:06:23.196Z,99584.63
2023-04-01T18:09:06.712Z,99591.72
2023-04-01T18:12:12.256Z,99593.81
2023-04-01T18:15:14.076Z,99603.81
2023-04-01T18:17:42.605Z,99604.63
2023-04-01T18:20:28.402Z,99604.22
2023-04-01T18:23:16.629Z,99599.03
2023-04-01T18:25:49.631Z,99603.78
2023-04-01T18:28:36.074Z,99609.16
2023-04-01T18:31:04.114Z,99605.66
2023-04-01T18:33:58.556Z,99614.75
2023-04-01T18:36:52.252Z,99628.41
2023-04-01T18:39:41.895Z,99630.03
2023-04-01T18:42:31.680Z,99627.28
2023-04-01T18:45:18.999Z,99633.06
2023-04-01T18:48:18.640Z,99635.19
2023-04-01T18:50:57.386Z,99631.81
2023-04-01T18:53:48.674Z,99640.66
2023-04-01T18:56:37.437Z,99640.06
2023-04-01T18:59:08.050Z,99645.59
2023-04-01T19:02:08.585Z,99646.53
2023-04-01T19:05:14.225Z,99644.00
2023-04-01T19:07:44.545Z,99653.16
2023-04-01T19:10:21.670Z,99653.91
2023-04-01T19:13:24.025Z,99652.72
2023-04-01T19:16:24.042Z,99652.25
2023-04-01T19:18:51.873Z,99652.81
2023-04-01T19:21:36.565Z,99661.94
2023-04-01T19:24:17.667Z,99670.75
2023-04-01T19:27:26.038Z,99668.41
2023-04-01T19:30:09.231Z,99674.63
2023-04-01T19:32:37.140Z,99672.91
2023-04-01T19:35:19.170Z,99679.53
2023-04-01T19:38:15.856Z,99685.53
2023-04-01T19:40:54.973Z,99694.91
2023-04-01T19:43:25.533Z,99699.13
2023-04-01T19:46:09.042Z,99693.47
2023-04-01T19:49:15.776Z,99699.38
2023-04-01T19:51:58.698Z,99697.44
2023-04-01T19:54:51.777Z,99694.00
2023-04-01T19:57:37.878Z,99696.09
2023-04-01T20:00:31.385Z,99692.53
2023-04-01T20:03:05.216Z,99705.56
2023-04-01T20:05:38.846Z,99706.03
2023-04-01T20:08:07.934Z,99703.19
2023-04-01T20:10:49.093Z,99708.00
2023-04-01T20:13:37.255Z,99704.69
2023-04-01T20:16:08.905Z,99703.34
2023-04-01T20:18:50.660Z,99699.16
2023-04-01T20:21:30.555Z,99701.31
2023-04-01T20:24:14.350Z,99702.41
2023-04-01T20:26:48.207Z,99695.66
2023-04-01T20:29:37.904Z,99701.09
2023-04-01T20:32:55.922Z,99697.06
2023-04-01T20:35:52.063Z,99702.53
2023-04-01T20:38:32.308Z,99703.81
2023-04-01T20:41:02.592Z,99705.66
2023-04-01T20:43:49.037Z,99712.50
2023-04-01T20:46:47.551Z,99715.63
2023-04-01T20:49:42.439Z,99722.94
2023-04-01T20:52:19.805Z,99720.16
2023-04-01T20:54:54.240Z,99721.19
2023-04-01T20:57:31.291Z,99722.59
2023-04-01T21:00:09.321Z,99729.69
2023-04-01T21:03:03.253Z,99729.31
2023-04-01T21:05:59.037Z,99728.31
2023-04-01T21:08:50.986Z,99737.59
2023-04-01T21:11:38.211Z,99729.31
2023-04-01T21:14:15.811Z,99736.00
2023-04-01T21:17:21.309Z,99744.91
2023-04-01T21:20:27.559Z,99736.47
2023-04-01T21:23:13.676Z,99742.22
2023-04-01T21:25:53.476Z,99742.94
2023-04-01T21:28:53.742Z,99735.63
2023-04-01T21:31:37.096Z,99749.69
2023-04-01T21:34:23.046Z,99750.00
2023-04-01T21:37:17.785Z,99752.47
2023-04-01T21:39:54.677Z,99756.88
2023-04-01T21:42:25.214Z,99757.22
2023-04-01T21:45:08.217Z,99750.06
2023-04-01T21:48:13.528Z,99764.16
2023-04-01T21:51:02.896Z,99754.78
2023-04-01T21:53:57.644Z,99759.06
2023-04-01T21:56:40.833Z,99760.44
2023-04-01T21:59:27.207Z,99753.22
2023-04-01T22:02:14.432Z,99750.31
2023-04-01T22:05:05.680Z,99754.88
2023-04-01T22:08:04.229Z,99756.16
2023-04-01T22:10:54.926Z,99756.72
2023-04-01T22:13:50.779Z,99767.16
2023-04-01T22:16:26.944Z,99765.88
2023-04-01T22:19:21.165Z,99757.16
2023-04-01T22:22:02.664Z,99758.72
2023-04-01T22:25:08.068Z,99756.78
2023-04-01T22:27:48.520Z,99763.25
2023-04-01T22:30:31.533Z,99755.22
2023-04-01T22:33:34.292Z,99756.72
2023-04-01T22:36:29.578Z,99754.78
2023-04-01T22:39:23.652Z,99754.59
2023-04-01T22:41:57.683Z,99745.16
2023-04-01T22:44:32.541Z,99749.84
2023-04-01T22:47:19.122Z,99750.78
2023-04-01T22:50:05.060Z,99757.16
2023-04-01T22:52:40.133Z,99757.16
2023-04-01T22:55:16.770Z,99749.69
2023-04-01T22:57:58.320Z,99766.50
2023-04-01T23:00:34.697Z,99761.13
2023-04-01T23:03:02.542Z,99759.91
2023-04-01T23:05:32.237Z,99762.47
2023-04-01T23:08:38.564Z,99773.63
2023-04-01T23:11:15.339Z,99759.97
2023-04-01T23:13:49.774Z,99766.56
2023-04-01T23:16:24.814Z,99768.28
2023-04-01T23:19:19.765Z,99772.97
2023-04-01T23:22:12.848Z,99771.94
2023-04-01T23:25:00.284Z,99771.28
2023-04-01T23:27:43.276Z,99773.75
2023-04-01T23:30:41.730Z,99773.88
2023-04-01T23:33:21.154Z,99765.19
2023-04-01T23:35:52.215Z,99764.47
2023-04-01T23:38:26.600Z,99775.84
2023-04-01T23:40:56.764Z,99777.47
2023-04-01T23:43:27.687Z,99780.56
2023-04-01T23:46:01.738Z,99764.44
2023-04-01T23:48:33.751Z,99775.34
2023-04-01T23:51:02.682Z,99774.34
2023-04-01T23:53:34.753Z,99775.66
2023-04-01T23:56:07.150Z,99779.38
2023-04-01T23:59:04.597Z,99780.13
